Thunder radar more information blitzortung!


Radar de pluja more information rain snow radar


Visita la nostra xarxa de llocs de meteo:

Template documentation
and downloads

And another site



No particular awareness of the weather is required.    There are no Weather-warnings

Pagina Historial Weather Underground text

Diari Resum Agost 7, 2017 Unitats:  Imperial    Mètric   Tant
« Previous Dia
SegĂźent Dia »
Diari Setmana Mensual Anual Personalitzada
  Maxima: Minima: Media:
Temperatura: 89.8 °F 71.2 °F 82.9 °F
Punt de rosada: 69.8 °F 59.4 °F 65.8 °F
Humitat: 80 % 38 % 57 %
Wind Speed: 10 mph 0 mph 2.1 mph
RĂ fegues de vent: 13 mph - -
Vent:- - South
Pression baro: 30 in 29.7 in -
Precipitacions: 0 in    
Historical Graphs
 
 
Dades de taula per Agost 7, 2017
Temps Temperatura Punt de rosada Pression baro Vent Wind Speed RĂ fegues de vent Humitat Rainfall Rate (Hourly)
00:03 74.7 °F 65.5 °F 30 in WSW 2.3 mph 2.3 mph 73 % 0 in
00:05 72 °F 64.8 °F 30 in SW 1 mph 1 mph 78 % 0 in
00:08 74.7 °F 65.5 °F 30 in SW 2.3 mph 2.3 mph 73 % 0 in
00:25 71.8 °F 64.6 °F 30 in SW 2 mph 2 mph 78 % 0 in
00:35 71.6 °F 64.4 °F 30 in SW 1 mph 2 mph 78 % 0 in
00:45 71.6 °F 64.8 °F 30 in SW 1 mph 2 mph 79 % 0 in
00:55 71.6 °F 64.8 °F 30 in Calm     79 % 0 in
01:05 71.4 °F 64.6 °F 30 in Calm     79 % 0 in
01:15 71.4 °F 64.6 °F 30 in Calm     79 % 0 in
01:25 71.4 °F 64.6 °F 30 in Calm     79 % 0 in
01:35 71.2 °F 64.4 °F 30 in Calm     79 % 0 in
01:45 71.2 °F 64.8 °F 30 in Calm     80 % 0 in
01:55 71.2 °F 64.8 °F 30 in Calm   1 mph 80 % 0 in
02:05 71.2 °F 64.8 °F 30 in Calm   1 mph 80 % 0 in
02:15 71.4 °F 64.9 °F 30 in Calm   1 mph 80 % 0 in
02:25 71.6 °F 65.1 °F 30 in Calm     80 % 0 in
02:35 71.6 °F 65.1 °F 29.9 in Calm     80 % 0 in
02:45 72 °F 65.1 °F 29.9 in East 1 mph 2 mph 79 % 0 in
02:55 72.3 °F 65.5 °F 29.9 in Calm   1 mph 79 % 0 in
03:05 72.7 °F 65.5 °F 29.9 in SW 2 mph 2 mph 78 % 0 in
03:15 72.7 °F 65.5 °F 29.9 in SW 2 mph 2 mph 78 % 0 in
03:25 73.4 °F 66 °F 30 in Calm   2 mph 78 % 0 in
03:35 74.8 °F 66.7 °F 30 in SSW 2 mph 2 mph 76 % 0 in
03:45 75.6 °F 67.1 °F 30 in Calm   1 mph 75 % 0 in
03:55 75.9 °F 67.5 °F 30 in South 1 mph 3 mph 75 % 0 in
04:05 76.6 °F 67.6 °F 29.9 in South 1 mph 3 mph 74 % 0 in
04:15 77.5 °F 67.8 °F 29.9 in Calm   2 mph 72 % 0 in
09:15 87.3 °F 66.4 °F 29.9 in SSW 10 mph 11 mph 50 % 0 in
09:17 78.3 °F 67.6 °F 29.9 in SSE 2.6 mph 2.6 mph 70 % 0 in
09:18 78.3 °F 67.6 °F 29.9 in SSE 2.6 mph 2.6 mph 70 % 0 in
09:23 78.6 °F 68 °F 29.9 in SE 1.2 mph   70 % 0 in
09:25 87.4 °F 66.6 °F 29.9 in SW 8 mph 9 mph 50 % 0 in
09:28 79 °F 67.8 °F 29.9 in ESE 2.3 mph 2.3 mph 69 % 0 in
09:33 79.7 °F 67.8 °F 29.9 in SSW 1.2 mph   67 % 0 in
09:35 88.3 °F 66.7 °F 29.9 in SW 3 mph 6 mph 49 % 0 in
09:38 80.1 °F 68.2 °F 29.9 in North 2.3 mph 2.3 mph 67 % 0 in
09:43 80.1 °F 68.2 °F 29.9 in WSW 2.4 mph 2.4 mph 67 % 0 in
09:45 89.1 °F 67.5 °F 29.9 in SW 2 mph 5 mph 49 % 0 in
09:48 80.6 °F 67.6 °F 29.9 in SSW 2.2 mph   65 % 0 in
09:55 89.4 °F 67.1 °F 29.9 in SW 8 mph 8 mph 48 % 0 in
09:58 81.1 °F 67.8 °F 29.9 in WSW 4.3 mph 4.3 mph 64 % 0 in
10:03 80.6 °F 67.3 °F 29.9 in SSW 5.8 mph 5.8 mph 64 % 0 in
10:05 89.6 °F 67.3 °F 29.9 in SSW 5 mph 11 mph 48 % 0 in
10:08 80.8 °F 66.9 °F 29.9 in WSW 4.6 mph 4.6 mph 63 % 0 in
10:13 81.3 °F 67.5 °F 29.9 in SW 4.6 mph 4.6 mph 63 % 0 in
10:15 89.1 °F 66.7 °F 29.9 in SW 2 mph 8 mph 48 % 0 in
10:18 82 °F 67.6 °F 29.9 in ENE 2.3 mph 2.3 mph 62 % 0 in
10:23 82.8 °F 67.8 °F 29.9 in WSW 5.8 mph 5.8 mph 61 % 0 in
10:25 89.6 °F 67.3 °F 29.9 in SW 3 mph 8 mph 48 % 0 in
10:28 83.1 °F 68.4 °F 29.9 in West 3.5 mph 3.5 mph 61 % 0 in
10:33 82.8 °F 67.5 °F 29.9 in West 4.6 mph 4.6 mph 60 % 0 in
10:35 89.8 °F 67.5 °F 29.9 in SW 3 mph 9 mph 48 % 0 in
10:38 83.3 °F 67.5 °F 29.9 in SW 4.7 mph 4.7 mph 59 % 0 in
10:43 83.3 °F 66.9 °F 29.9 in WSW 3.5 mph 3.5 mph 58 % 0 in
10:45 88.7 °F 66.6 °F 29.9 in SW 6 mph 8 mph 48 % 0 in
10:48 82.8 °F 66.9 °F 29.9 in West 5.8 mph 5.8 mph 59 % 0 in
10:53 82.4 °F 66.6 °F 29.9 in West 2.3 mph 2.3 mph 59 % 0 in
10:55 88.9 °F 66.7 °F 29.9 in SW 5 mph 5 mph 48 % 0 in
10:58 82.6 °F 66.4 °F 29.9 in SW 2.3 mph 2.3 mph 58 % 0 in
11:03 83.1 °F 66.7 °F 29.9 in SW 2.3 mph 2.3 mph 58 % 0 in
11:05 88.7 °F 67.1 °F 29.9 in SW 3 mph 8 mph 49 % 0 in
11:08 84.2 °F 66.7 °F 29.9 in WSW 3.5 mph 3.5 mph 56 % 0 in
11:13 84.9 °F 67.5 °F 29.9 in West 4.6 mph 4.6 mph 56 % 0 in
11:15 88.2 °F 66.6 °F 29.9 in SW 6 mph 8 mph 49 % 0 in
11:18 84.9 °F 66.4 °F 29.9 in West 5.8 mph 5.8 mph 54 % 0 in
11:23 85.6 °F 67.1 °F 29.9 in South 4.6 mph 4.6 mph 54 % 0 in
11:25 88 °F 65.8 °F 29.9 in SW 7 mph 13 mph 48 % 0 in
11:28 84.9 °F 65.8 °F 29.9 in SW 4.6 mph 4.6 mph 53 % 0 in
11:33 85.1 °F 66 °F 29.9 in South 1.6 mph 2.4 mph 53 % 0 in
11:35 88.2 °F 66 °F 29.8 in SW 7 mph 9 mph 48 % 0 in
11:38 85.1 °F 66 °F 29.9 in South 1.6 mph 2.4 mph 53 % 0 in
11:43 85.1 °F 66 °F 29.9 in South 1.6 mph 2.4 mph 53 % 0 in
11:45 88.5 °F 65.7 °F 29.8 in SW 8 mph 10 mph 47 % 0 in
11:48 85.1 °F 66 °F 29.9 in South 1.6 mph 2.4 mph 53 % 0 in
11:53 85.1 °F 66 °F 29.9 in South 1.6 mph 2.4 mph 53 % 0 in
11:55 89.6 °F 66 °F 29.8 in SW 3 mph 5 mph 46 % 0 in
11:58 85.1 °F 66 °F 29.9 in South 1.6 mph 2.4 mph 53 % 0 in
12:03 85.1 °F 66 °F 29.9 in South 1.6 mph 2.4 mph 53 % 0 in
12:05 88.5 °F 65.1 °F 29.8 in SW 7 mph 11 mph 46 % 0 in
12:08 85.1 °F 66 °F 29.9 in South 1.6 mph 2.4 mph 53 % 0 in
12:13 85.1 °F 66 °F 29.9 in South 1.6 mph 2.4 mph 53 % 0 in
12:15 89.4 °F 65.3 °F 29.8 in SSW 3 mph 6 mph 45 % 0 in
12:18 85.1 °F 66 °F 29.9 in South 1.6 mph 2.4 mph 53 % 0 in
12:23 85.1 °F 66 °F 29.9 in South 1.6 mph 2.4 mph 53 % 0 in
12:25 88.9 °F 64.8 °F 29.8 in SSW 3 mph 6 mph 45 % 0 in
12:28 85.1 °F 66 °F 29.9 in South 1.6 mph 2.4 mph 53 % 0 in
12:33 85.1 °F 66 °F 29.9 in South 1.6 mph 2.4 mph 53 % 0 in
12:35 88.9 °F 64 °F 29.8 in SW 3 mph 10 mph 44 % 0 in
12:38 85.1 °F 66 °F 29.9 in South 1.6 mph 2.4 mph 53 % 0 in
12:43 85.1 °F 66 °F 29.9 in South 1.6 mph 2.4 mph 53 % 0 in
12:48 85.1 °F 66 °F 29.9 in South 1.6 mph 2.4 mph 53 % 0 in
12:53 85.1 °F 66 °F 29.9 in South 1.6 mph 2.4 mph 53 % 0 in
12:55 88.5 °F 62.4 °F 29.8 in SW 6 mph 9 mph 42 % 0 in
12:58 85.1 °F 66 °F 29.9 in South 1.6 mph 2.4 mph 53 % 0 in
13:03 85.1 °F 66 °F 29.9 in South 1.6 mph 2.4 mph 53 % 0 in
13:05 88.5 °F 61.2 °F 29.8 in SSW 3 mph 7 mph 40 % 0 in
13:08 85.1 °F 66 °F 29.9 in South 1.6 mph 2.4 mph 53 % 0 in
13:13 85.1 °F 66 °F 29.9 in South 1.6 mph 2.4 mph 53 % 0 in
13:15 88.2 °F 60.1 °F 29.8 in SW 5 mph 8 mph 39 % 0 in
13:18 85.1 °F 66 °F 29.9 in South 1.6 mph 2.4 mph 53 % 0 in
13:23 85.1 °F 66 °F 29.9 in South 1.6 mph 2.4 mph 53 % 0 in
13:25 88.3 °F 60.3 °F 29.8 in SW 3 mph 11 mph 39 % 0 in
13:28 85.1 °F 66 °F 29.9 in South 1.6 mph 2.4 mph 53 % 0 in
13:33 85.1 °F 66 °F 29.9 in South 1.6 mph 2.4 mph 53 % 0 in
13:35 88.2 °F 59.4 °F 29.8 in SSW 6 mph 8 mph 38 % 0 in
13:38 85.1 °F 66 °F 29.9 in South 1.6 mph 2.4 mph 53 % 0 in
13:43 85.1 °F 66 °F 29.9 in South 1.6 mph 2.4 mph 53 % 0 in
13:45 87.8 °F 59.7 °F 29.8 in SW 2 mph 8 mph 39 % 0 in
13:48 85.1 °F 66 °F 29.9 in South 1.6 mph 2.4 mph 53 % 0 in
13:53 85.1 °F 66 °F 29.9 in South 1.6 mph 2.4 mph 53 % 0 in
13:55 86.7 °F 59.5 °F 29.8 in SW 5 mph 5 mph 40 % 0 in
13:58 85.1 °F 66 °F 29.9 in South 1.6 mph 2.4 mph 53 % 0 in
14:03 85.1 °F 66 °F 29.9 in South 1.6 mph 2.4 mph 53 % 0 in
14:05 86.9 °F 59.7 °F 29.8 in SW 3 mph 8 mph 40 % 0 in
14:08 85.1 °F 66 °F 29.9 in South 1.6 mph 2.4 mph 53 % 0 in
14:13 85.1 °F 66 °F 29.9 in South 1.6 mph 2.4 mph 53 % 0 in
14:15 85.6 °F 59.9 °F 29.8 in SW 3 mph 7 mph 42 % 0 in
14:18 85.1 °F 66 °F 29.9 in South 1.6 mph 2.4 mph 53 % 0 in
14:23 85.1 °F 66 °F 29.9 in South 1.6 mph 2.4 mph 53 % 0 in
14:25 85.1 °F 59.4 °F 29.8 in SW 3 mph 7 mph 42 % 0 in
14:28 85.1 °F 66 °F 29.9 in South 1.6 mph 2.4 mph 53 % 0 in
14:33 85.1 °F 66 °F 29.9 in South 1.6 mph 2.4 mph 53 % 0 in
14:35 84 °F 59.7 °F 29.8 in SW 5 mph 5 mph 44 % 0 in
14:38 85.1 °F 66 °F 29.9 in South 1.6 mph 2.4 mph 53 % 0 in
14:43 85.1 °F 66 °F 29.9 in South 1.6 mph 2.4 mph 53 % 0 in
14:45 83.3 °F 60.4 °F 29.8 in SSW 3 mph 3 mph 46 % 0 in
14:48 85.1 °F 66 °F 29.9 in South 1.6 mph 2.4 mph 53 % 0 in
14:53 85.1 °F 66 °F 29.9 in South 1.6 mph 2.4 mph 53 % 0 in
14:55 83.3 °F 61 °F 29.8 in SSW 2 mph 3 mph 47 % 0 in
14:58 85.1 °F 66 °F 29.9 in South 1.6 mph 2.4 mph 53 % 0 in
15:03 85.1 °F 66 °F 29.9 in South 1.6 mph 2.4 mph 53 % 0 in
15:05 82.6 °F 61 °F 29.8 in SSW 3 mph 6 mph 48 % 0 in
15:08 85.1 °F 66 °F 29.9 in South 1.6 mph 2.4 mph 53 % 0 in
15:13 85.1 °F 66 °F 29.9 in South 1.6 mph 2.4 mph 53 % 0 in
15:15 82 °F 61.5 °F 29.8 in SSW 2 mph 5 mph 50 % 0 in
15:18 85.1 °F 66 °F 29.9 in South 1.6 mph 2.4 mph 53 % 0 in
15:23 85.1 °F 66 °F 29.9 in South 1.6 mph 2.4 mph 53 % 0 in
15:25 81.9 °F 62.1 °F 29.8 in SSW 1 mph 6 mph 51 % 0 in
15:28 85.1 °F 66 °F 29.9 in South 1.6 mph 2.4 mph 53 % 0 in
15:34 85.1 °F 66 °F 29.9 in South 1.6 mph 2.4 mph 53 % 0 in
15:35 81 °F 61.7 °F 29.8 in SSW 2 mph 2 mph 52 % 0 in
15:38 85.1 °F 66 °F 29.9 in South 1.6 mph 2.4 mph 53 % 0 in
15:44 85.1 °F 66 °F 29.9 in South 1.6 mph 2.4 mph 53 % 0 in
15:45 80.6 °F 61.9 °F 29.8 in SW 3 mph 4 mph 53 % 0 in
15:49 85.1 °F 66 °F 29.9 in South 1.6 mph 2.4 mph 53 % 0 in
15:54 85.1 °F 66 °F 29.9 in South 1.6 mph 2.4 mph 53 % 0 in
15:55 80.2 °F 62.6 °F 29.8 in SW 1 mph 4 mph 55 % 0 in
15:59 85.1 °F 66 °F 29.9 in South 1.6 mph 2.4 mph 53 % 0 in
16:04 85.1 °F 66 °F 29.9 in South 1.6 mph 2.4 mph 53 % 0 in
16:05 79.9 °F 63.3 °F 29.8 in SW 3 mph 3 mph 57 % 0 in
16:09 85.1 °F 66 °F 29.9 in South 1.6 mph 2.4 mph 53 % 0 in
16:14 85.1 °F 66 °F 29.9 in South 1.6 mph 2.4 mph 53 % 0 in
16:15 79.5 °F 63.9 °F 29.8 in SW 1 mph 3 mph 59 % 0 in
16:19 85.1 °F 66 °F 29.9 in South 1.6 mph 2.4 mph 53 % 0 in
16:24 85.1 °F 66 °F 29.9 in South 1.6 mph 2.4 mph 53 % 0 in
16:29 85.1 °F 66 °F 29.9 in South 1.6 mph 2.4 mph 53 % 0 in
16:34 85.1 °F 66 °F 29.9 in South 1.6 mph 2.4 mph 53 % 0 in
16:35 78.6 °F 64 °F 29.8 in SW 2 mph 3 mph 61 % 0 in
16:39 85.1 °F 66 °F 29.9 in South 1.6 mph 2.4 mph 53 % 0 in
16:44 85.1 °F 66 °F 29.9 in South 1.6 mph 2.4 mph 53 % 0 in
16:45 78.4 °F 64.2 °F 29.8 in SW 2 mph 3 mph 62 % 0 in
16:49 85.1 °F 66 °F 29.9 in South 1.6 mph 2.4 mph 53 % 0 in
16:54 85.1 °F 66 °F 29.9 in South 1.6 mph 2.4 mph 53 % 0 in
16:55 78.1 °F 64.9 °F 29.8 in SW 1 mph 4 mph 64 % 0 in
16:59 85.1 °F 66 °F 29.9 in South 1.6 mph 2.4 mph 53 % 0 in
17:04 85.1 °F 66 °F 29.9 in South 1.6 mph 2.4 mph 53 % 0 in
17:05 77.9 °F 64.8 °F 29.8 in SW 2 mph 3 mph 64 % 0 in
17:09 85.1 °F 66 °F 29.9 in South 1.6 mph 2.4 mph 53 % 0 in
17:14 85.1 °F 66 °F 29.9 in South 1.6 mph 2.4 mph 53 % 0 in
17:15 77.7 °F 64.9 °F 29.8 in Calm   1 mph 65 % 0 in
17:19 85.1 °F 66 °F 29.9 in South 1.6 mph 2.4 mph 53 % 0 in
17:24 85.1 °F 66 °F 29.9 in South 1.6 mph 2.4 mph 53 % 0 in
17:25 77.5 °F 65.3 °F 29.8 in Calm   1 mph 66 % 0 in
17:29 85.1 °F 66 °F 29.9 in South 1.6 mph 2.4 mph 53 % 0 in
17:34 85.1 °F 66 °F 29.9 in South 1.6 mph 2.4 mph 53 % 0 in
17:35 77.5 °F 65.3 °F 29.8 in Calm   1 mph 66 % 0 in
17:39 85.1 °F 66 °F 29.9 in South 1.6 mph 2.4 mph 53 % 0 in
17:44 85.1 °F 66 °F 29.9 in South 1.6 mph 2.4 mph 53 % 0 in
17:45 77.5 °F 65.3 °F 29.8 in SW 1 mph 2 mph 66 % 0 in
17:49 85.1 °F 66 °F 29.9 in South 1.6 mph 2.4 mph 53 % 0 in
17:54 85.1 °F 66 °F 29.9 in South 1.6 mph 2.4 mph 53 % 0 in
17:55 77.4 °F 65.5 °F 29.8 in Calm   2 mph 67 % 0 in
17:59 85.1 °F 66 °F 29.9 in South 1.6 mph 2.4 mph 53 % 0 in
18:04 85.1 °F 66 °F 29.9 in South 1.6 mph 2.4 mph 53 % 0 in
18:05 77.2 °F 65.8 °F 29.8 in Calm   2 mph 68 % 0 in
18:09 85.1 °F 66 °F 29.9 in South 1.6 mph 2.4 mph 53 % 0 in
18:14 85.1 °F 66 °F 29.9 in South 1.6 mph 2.4 mph 53 % 0 in
18:15 77.2 °F 65.8 °F 29.8 in WSW 1 mph 2 mph 68 % 0 in
18:19 85.1 °F 66 °F 29.9 in South 1.6 mph 2.4 mph 53 % 0 in
18:24 85.1 °F 66 °F 29.9 in South 1.6 mph 2.4 mph 53 % 0 in
18:25 77.2 °F 66.6 °F 29.8 in WSW 1 mph 1 mph 70 % 0 in
18:29 85.1 °F 66 °F 29.9 in South 1.6 mph 2.4 mph 53 % 0 in
18:34 85.1 °F 66 °F 29.9 in South 1.6 mph 2.4 mph 53 % 0 in
18:39 85.1 °F 66 °F 29.9 in South 1.6 mph 2.4 mph 53 % 0 in
18:44 85.1 °F 66 °F 29.9 in South 1.6 mph 2.4 mph 53 % 0 in
18:49 85.1 °F 66 °F 29.9 in South 1.6 mph 2.4 mph 53 % 0 in
18:54 85.1 °F 66 °F 29.9 in South 1.6 mph 2.4 mph 53 % 0 in
18:59 85.1 °F 66 °F 29.9 in South 1.6 mph 2.4 mph 53 % 0 in
19:04 85.1 °F 66 °F 29.9 in South 1.6 mph 2.4 mph 53 % 0 in
19:09 85.1 °F 66 °F 29.9 in South 1.6 mph 2.4 mph 53 % 0 in
19:14 85.1 °F 66 °F 29.9 in South 1.6 mph 2.4 mph 53 % 0 in
19:19 85.1 °F 66 °F 29.9 in South 1.6 mph 2.4 mph 53 % 0 in
19:24 85.1 °F 66 °F 29.9 in South 1.6 mph 2.4 mph 53 % 0 in
19:25 76.8 °F 66.7 °F 29.8 in NNE 1 mph 2 mph 71 % 0 in
19:29 85.1 °F 66 °F 29.9 in South 1.6 mph 2.4 mph 53 % 0 in
19:34 85.1 °F 66 °F 29.9 in South 1.6 mph 2.4 mph 53 % 0 in
19:35 76.8 °F 66.7 °F 29.8 in SSE 1 mph 2 mph 71 % 0 in
19:39 85.1 °F 66 °F 29.9 in South 1.6 mph 2.4 mph 53 % 0 in
19:44 85.1 °F 66 °F 29.9 in South 1.6 mph 2.4 mph 53 % 0 in
19:45 76.8 °F 67.1 °F 29.8 in ENE 2 mph 2 mph 72 % 0 in
19:49 85.1 °F 66 °F 29.9 in South 1.6 mph 2.4 mph 53 % 0 in
19:54 85.1 °F 66 °F 29.9 in South 1.6 mph 2.4 mph 53 % 0 in
19:55 76.8 °F 67.1 °F 29.8 in NE 3 mph 4 mph 72 % 0 in
19:59 85.1 °F 66 °F 29.9 in South 1.6 mph 2.4 mph 53 % 0 in
20:04 85.1 °F 66 °F 29.9 in South 1.6 mph 2.4 mph 53 % 0 in
20:05 76.8 °F 67.5 °F 29.8 in NNE 3 mph 4 mph 73 % 0 in
20:09 85.1 °F 66 °F 29.9 in South 1.6 mph 2.4 mph 53 % 0 in
20:14 85.1 °F 66 °F 29.9 in South 1.6 mph 2.4 mph 53 % 0 in
20:15 76.8 °F 67.5 °F 29.8 in NE 2 mph 3 mph 73 % 0 in
20:19 85.1 °F 66 °F 29.9 in South 1.6 mph 2.4 mph 53 % 0 in
20:24 85.1 °F 66 °F 29.9 in South 1.6 mph 2.4 mph 53 % 0 in
20:25 76.8 °F 67.8 °F 29.8 in NE 2 mph 4 mph 74 % 0 in
20:29 85.1 °F 66 °F 29.9 in South 1.6 mph 2.4 mph 53 % 0 in
20:34 85.1 °F 66 °F 29.9 in South 1.6 mph 2.4 mph 53 % 0 in
20:35 76.8 °F 67.8 °F 29.8 in ENE 2 mph 3 mph 74 % 0 in
20:39 85.1 °F 66 °F 29.9 in South 1.6 mph 2.4 mph 53 % 0 in
20:44 85.1 °F 66 °F 29.9 in South 1.6 mph 2.4 mph 53 % 0 in
20:45 76.8 °F 68.4 °F 29.8 in ENE 2 mph 3 mph 75 % 0 in
20:49 85.1 °F 66 °F 29.9 in South 1.6 mph 2.4 mph 53 % 0 in
20:50 85.1 °F 66 °F 29.9 in South 1.6 mph 2.4 mph 53 % 0 in
20:55 85.1 °F 66 °F 29.9 in South 1.6 mph 2.4 mph 53 % 0 in
21:00 85.1 °F 66 °F 29.9 in South 1.6 mph 2.4 mph 53 % 0 in
21:05 85.1 °F 66 °F 29.9 in South 1.6 mph 2.4 mph 53 % 0 in
21:10 85.1 °F 66 °F 29.9 in South 1.6 mph 2.4 mph 53 % 0 in
21:15 85.1 °F 66 °F 29.9 in South 1.6 mph 2.4 mph 53 % 0 in
21:20 85.1 °F 66 °F 29.9 in South 1.6 mph 2.4 mph 53 % 0 in
21:25 85.1 °F 66 °F 29.9 in South 1.6 mph 2.4 mph 53 % 0 in
21:30 85.1 °F 66 °F 29.9 in South 1.6 mph 2.4 mph 53 % 0 in
21:35 85.1 °F 66 °F 29.9 in South 1.6 mph 2.4 mph 53 % 0 in
21:40 85.1 °F 66 °F 29.9 in South 1.6 mph 2.4 mph 53 % 0 in
21:45 85.1 °F 66 °F 29.9 in South 1.6 mph 2.4 mph 53 % 0 in
21:50 85.1 °F 66 °F 29.9 in South 1.6 mph 2.4 mph 53 % 0 in
21:55 85.1 °F 66 °F 29.9 in South 1.6 mph 2.4 mph 53 % 0 in
22:00 85.1 °F 66 °F 29.9 in South 1.6 mph 2.4 mph 53 % 0 in
22:05 85.1 °F 66 °F 29.9 in South 1.6 mph 2.4 mph 53 % 0 in
22:10 85.1 °F 66 °F 29.9 in South 1.6 mph 2.4 mph 53 % 0 in
22:15 85.1 °F 66 °F 29.9 in South 1.6 mph 2.4 mph 53 % 0 in
22:20 85.1 °F 66 °F 29.9 in South 1.6 mph 2.4 mph 53 % 0 in
22:25 85.1 °F 66 °F 29.9 in South 1.6 mph 2.4 mph 53 % 0 in
22:30 85.1 °F 66 °F 29.9 in South 1.6 mph 2.4 mph 53 % 0 in
22:35 85.1 °F 66 °F 29.9 in South 1.6 mph 2.4 mph 53 % 0 in
22:40 85.1 °F 66 °F 29.9 in South 1.6 mph 2.4 mph 53 % 0 in
22:45 85.1 °F 66 °F 29.9 in South 1.6 mph 2.4 mph 53 % 0 in
22:50 85.1 °F 66 °F 29.9 in South 1.6 mph 2.4 mph 53 % 0 in
22:55 85.1 °F 66 °F 29.9 in South 1.6 mph 2.4 mph 53 % 0 in
23:00 85.1 °F 66 °F 29.9 in South 1.6 mph 2.4 mph 53 % 0 in
23:05 85.1 °F 66 °F 29.9 in South 1.6 mph 2.4 mph 53 % 0 in
23:10 85.1 °F 66 °F 29.9 in South 1.6 mph 2.4 mph 53 % 0 in
23:15 85.1 °F 66 °F 29.9 in South 1.6 mph 2.4 mph 53 % 0 in
23:20 85.1 °F 66 °F 29.9 in South 1.6 mph 2.4 mph 53 % 0 in
23:25 85.1 °F 66 °F 29.9 in South 1.6 mph 2.4 mph 53 % 0 in
23:33 77.2 °F 66.6 °F 29.8 in ENE 1.2 mph 1.2 mph 70 % 0 in
23:35 76.8 °F 69.8 °F 29.7 in NE 2 mph 3 mph 79 % 0 in
23:38 77.2 °F 66.6 °F 29.8 in ENE 1.6 mph 1.6 mph 70 % 0 in
23:43 77 °F 66.6 °F 29.8 in SSW 1.2 mph   70 % 0 in
23:45 76.8 °F 69.4 °F 29.7 in NE 5 mph 7 mph 78 % 0 in
23:48 77 °F 66.6 °F 29.8 in ENE 1.6 mph 1.6 mph 70 % 0 in
23:53 77.2 °F 66.6 °F 29.8 in NNE 2.4 mph 2.4 mph 70 % 0 in
23:55 76.8 °F 69.8 °F 29.7 in NNE 2 mph 5 mph 79 % 0 in
23:58 77 °F 66.6 °F 29.8 in NE 3.5 mph 3.5 mph 70 % 0 in
Meteo Sesrovires
Elogis d' Weather Underground - 4 mb

Guio original per  Jim McMurry - jmcmurry@mwt.net Adaptat per a la plantilla per  Wim van der Kuil - Leuven-Template.eu

Trobareu la nostra informacio del temps tambe a:

Weather Underground

AWEKAS